21D

Lake Elmo Airport

St Paul, Minnesota, USA
METAR K21D 240435Z AUTO 00000KT 10SM CLR M02/M02 A3040 RMK AO2
Observed Flight Rules
Oct-24 @ 04:35 UTC (28 minutes ago) Visual Flight Rules
Visibility Clouds
10 miles
  • Clear skies
Temperatures Readings
Current -2°C / 28°F
Dewpoint -2°C / 28°F
Humidity 100%
Altimeter 30.4" Hg
Pressure 1029 hPa
Elevation 285
METAR K21D 240435Z AUTO 00000KT 10SM CLR M02/M02 A3040 RMK AO2
Observed Flight Rules
Oct-24 @ 04:35 UTC
(28 minutes ago)
VFR
Clouds
  • Clear skies
Temperature Dewpoint
-2°C / 28°F -2°C / 28°F
Humidity Altimeter Pressure
100% 30.4" Hg 1029 hPa